sensor_id;sensor_type;location;lat;lon;timestamp;temperature;humidity
47368;DHT22;34646;47.964;7.982;2023-11-19T00:03:47;16.20;95.40
47368;DHT22;34646;47.964;7.982;2023-11-19T00:15:50;16.20;95.40
47368;DHT22;34646;47.964;7.982;2023-11-19T00:21:51;16.20;95.30
47368;DHT22;34646;47.964;7.982;2023-11-19T00:27:51;16.00;95.30
47368;DHT22;34646;47.964;7.982;2023-11-19T00:33:54;16.30;95.30
47368;DHT22;34646;47.964;7.982;2023-11-19T00:39:54;15.90;95.20
47368;DHT22;34646;47.964;7.982;2023-11-19T00:45:56;16.20;94.90
47368;DHT22;34646;47.964;7.982;2023-11-19T01:04:00;16.00;95.20
47368;DHT22;34646;47.964;7.982;2023-11-19T01:10:01;16.50;95.30
47368;DHT22;34646;47.964;7.982;2023-11-19T01:28:04;16.00;91.60
47368;DHT22;34646;47.964;7.982;2023-11-19T01:34:05;15.80;95.10
47368;DHT22;34646;47.964;7.982;2023-11-19T01:40:06;15.90;95.00
47368;DHT22;34646;47.964;7.982;2023-11-19T01:46:09;16.00;95.10
47368;DHT22;34646;47.964;7.982;2023-11-19T01:52:12;16.30;95.20
47368;DHT22;34646;47.964;7.982;2023-11-19T01:58:13;15.90;95.10
47368;DHT22;34646;47.964;7.982;2023-11-19T02:04:14;15.90;95.00
47368;DHT22;34646;47.964;7.982;2023-11-19T02:16:17;16.20;95.10
47368;DHT22;34646;47.964;7.982;2023-11-19T02:22:17;15.90;95.00
47368;DHT22;34646;47.964;7.982;2023-11-19T02:28:19;16.10;95.10
47368;DHT22;34646;47.964;7.982;2023-11-19T02:34:19;15.70;95.00
47368;DHT22;34646;47.964;7.982;2023-11-19T02:40:20;16.30;95.10
47368;DHT22;34646;47.964;7.982;2023-11-19T02:46:24;16.10;95.10
47368;DHT22;34646;47.964;7.982;2023-11-19T02:52:25;16.10;95.10
47368;DHT22;34646;47.964;7.982;2023-11-19T02:58:26;16.10;95.00
47368;DHT22;34646;47.964;7.982;2023-11-19T03:10:29;16.00;95.00
47368;DHT22;34646;47.964;7.982;2023-11-19T03:22:31;16.10;95.00
47368;DHT22;34646;47.964;7.982;2023-11-19T03:34:35;15.80;94.90
47368;DHT22;34646;47.964;7.982;2023-11-19T03:40:36;16.00;95.00
47368;DHT22;34646;47.964;7.982;2023-11-19T03:46:37;17.80;91.80
47368;DHT22;34646;47.964;7.982;2023-11-19T03:52:38;16.30;95.00
47368;DHT22;34646;47.964;7.982;2023-11-19T04:04:40;15.80;94.90
47368;DHT22;34646;47.964;7.982;2023-11-19T04:10:41;16.00;94.90
47368;DHT22;34646;47.964;7.982;2023-11-19T04:16:41;15.80;94.90
47368;DHT22;34646;47.964;7.982;2023-11-19T04:28:43;15.70;94.20
47368;DHT22;34646;47.964;7.982;2023-11-19T04:34:44;15.90;94.90
47368;DHT22;34646;47.964;7.982;2023-11-19T04:40:44;16.30;95.00
47368;DHT22;34646;47.964;7.982;2023-11-19T04:46:45;16.30;95.00
47368;DHT22;34646;47.964;7.982;2023-11-19T04:58:47;16.00;94.90
47368;DHT22;34646;47.964;7.982;2023-11-19T05:04:48;16.00;94.90
47368;DHT22;34646;47.964;7.982;2023-11-19T05:10:49;15.70;94.80
47368;DHT22;34646;47.964;7.982;2023-11-19T05:16:50;15.50;94.70
47368;DHT22;34646;47.964;7.982;2023-11-19T05:28:53;16.30;94.90
47368;DHT22;34646;47.964;7.982;2023-11-19T05:34:54;15.90;94.80
47368;DHT22;34646;47.964;7.982;2023-11-19T05:40:54;15.80;94.80
47368;DHT22;34646;47.964;7.982;2023-11-19T05:46:55;15.70;94.80
47368;DHT22;34646;47.964;7.982;2023-11-19T05:52:56;15.70;94.80
47368;DHT22;34646;47.964;7.982;2023-11-19T05:58:56;16.00;94.80
47368;DHT22;34646;47.964;7.982;2023-11-19T06:04:57;15.50;94.70
47368;DHT22;34646;47.964;7.982;2023-11-19T06:10:58;16.00;94.80
47368;DHT22;34646;47.964;7.982;2023-11-19T06:16:59;15.90;92.10
47368;DHT22;34646;47.964;7.982;2023-11-19T06:23:00;15.80;94.60
47368;DHT22;34646;47.964;7.982;2023-11-19T06:29:01;16.20;94.70
47368;DHT22;34646;47.964;7.982;2023-11-19T06:41:07;15.90;90.90
47368;DHT22;34646;47.964;7.982;2023-11-19T06:47:08;15.90;94.80
47368;DHT22;34646;47.964;7.982;2023-11-19T06:53:09;16.30;94.40
47368;DHT22;34646;47.964;7.982;2023-11-19T06:59:10;15.80;94.70
47368;DHT22;34646;47.964;7.982;2023-11-19T07:11:13;16.20;94.40
47368;DHT22;34646;47.964;7.982;2023-11-19T07:17:18;16.10;90.40
47368;DHT22;34646;47.964;7.982;2023-11-19T07:23:21;15.90;94.30
47368;DHT22;34646;47.964;7.982;2023-11-19T07:29:22;16.20;94.50
47368;DHT22;34646;47.964;7.982;2023-11-19T07:35:23;16.10;94.50
47368;DHT22;34646;47.964;7.982;2023-11-19T07:41:23;16.20;94.60
47368;DHT22;34646;47.964;7.982;2023-11-19T07:53:26;16.00;94.50
47368;DHT22;34646;47.964;7.982;2023-11-19T07:59:27;16.30;94.60
47368;DHT22;34646;47.964;7.982;2023-11-19T08:05:27;16.80;94.60
47368;DHT22;34646;47.964;7.982;2023-11-19T08:11:28;16.50;94.70
47368;DHT22;34646;47.964;7.982;2023-11-19T08:17:29;16.40;94.70
47368;DHT22;34646;47.964;7.982;2023-11-19T08:29:30;16.80;94.80
47368;DHT22;34646;47.964;7.982;2023-11-19T08:35:32;16.60;94.80
47368;DHT22;34646;47.964;7.982;2023-11-19T08:47:34;17.00;94.60
47368;DHT22;34646;47.964;7.982;2023-11-19T08:53:35;16.70;94.90
47368;DHT22;34646;47.964;7.982;2023-11-19T08:59:36;16.30;94.90
47368;DHT22;34646;47.964;7.982;2023-11-19T09:17:40;16.70;95.00
47368;DHT22;34646;47.964;7.982;2023-11-19T09:23:41;16.80;95.10
47368;DHT22;34646;47.964;7.982;2023-11-19T09:29:42;16.70;95.10
47368;DHT22;34646;47.964;7.982;2023-11-19T09:35:43;16.80;95.20
47368;DHT22;34646;47.964;7.982;2023-11-19T09:41:45;16.90;95.20
47368;DHT22;34646;47.964;7.982;2023-11-19T09:53:47;16.90;95.30
47368;DHT22;34646;47.964;7.982;2023-11-19T09:59:48;17.00;95.30
47368;DHT22;34646;47.964;7.982;2023-11-19T10:11:50;16.90;95.20
47368;DHT22;34646;47.964;7.982;2023-11-19T10:17:51;17.10;95.30
47368;DHT22;34646;47.964;7.982;2023-11-19T10:23:53;17.20;95.30
47368;DHT22;34646;47.964;7.982;2023-11-19T10:35:56;17.10;91.50
47368;DHT22;34646;47.964;7.982;2023-11-19T10:41:57;17.40;95.40
47368;DHT22;34646;47.964;7.982;2023-11-19T10:47:59;17.20;95.30
47368;DHT22;34646;47.964;7.982;2023-11-19T10:54:04;17.10;90.00
47368;DHT22;34646;47.964;7.982;2023-11-19T11:00:09;17.10;95.20
47368;DHT22;34646;47.964;7.982;2023-11-19T11:06:13;17.10;95.20
47368;DHT22;34646;47.964;7.982;2023-11-19T11:12:15;17.20;95.20
47368;DHT22;34646;47.964;7.982;2023-11-19T11:30:42;17.00;95.20
47368;DHT22;34646;47.964;7.982;2023-11-19T12:01:14;17.30;94.90
47368;DHT22;34646;47.964;7.982;2023-11-19T12:07:23;17.20;95.00
47368;DHT22;34646;47.964;7.982;2023-11-19T12:13:25;17.00;91.10
47368;DHT22;34646;47.964;7.982;2023-11-19T12:25:34;17.50;95.40
47368;DHT22;34646;47.964;7.982;2023-11-19T12:31:34;17.10;95.40
47368;DHT22;34646;47.964;7.982;2023-11-19T12:37:42;17.50;95.50
47368;DHT22;34646;47.964;7.982;2023-11-19T12:43:43;17.50;95.60
47368;DHT22;34646;47.964;7.982;2023-11-19T12:49:43;17.30;92.30
47368;DHT22;34646;47.964;7.982;2023-11-19T12:56:07;17.10;95.50
47368;DHT22;34646;47.964;7.982;2023-11-19T13:26:17;17.30;94.70
47368;DHT22;34646;47.964;7.982;2023-11-19T13:38:18;17.00;94.40
47368;DHT22;34646;47.964;7.982;2023-11-19T13:44:19;17.30;94.50
47368;DHT22;34646;47.964;7.982;2023-11-19T13:50:20;17.40;94.50
47368;DHT22;34646;47.964;7.982;2023-11-19T13:56:21;17.20;94.30
47368;DHT22;34646;47.964;7.982;2023-11-19T14:02:21;17.50;94.40
47368;DHT22;34646;47.964;7.982;2023-11-19T14:14:23;17.30;94.30
47368;DHT22;34646;47.964;7.982;2023-11-19T14:20:23;17.30;94.20
47368;DHT22;34646;47.964;7.982;2023-11-19T14:26:24;17.00;94.10
47368;DHT22;34646;47.964;7.982;2023-11-19T14:32:25;17.40;94.00
47368;DHT22;34646;47.964;7.982;2023-11-19T14:38:26;17.50;94.30
47368;DHT22;34646;47.964;7.982;2023-11-19T14:44:27;17.50;89.10
47368;DHT22;34646;47.964;7.982;2023-11-19T14:50:29;17.40;94.30
47368;DHT22;34646;47.964;7.982;2023-11-19T14:56:30;17.20;93.90
47368;DHT22;34646;47.964;7.982;2023-11-19T15:08:31;17.40;94.30
47368;DHT22;34646;47.964;7.982;2023-11-19T15:14:32;17.30;94.20
47368;DHT22;34646;47.964;7.982;2023-11-19T15:20:33;17.40;94.00
47368;DHT22;34646;47.964;7.982;2023-11-19T15:32:35;17.10;93.50
47368;DHT22;34646;47.964;7.982;2023-11-19T15:38:36;17.50;93.90
47368;DHT22;34646;47.964;7.982;2023-11-19T15:44:37;17.20;88.20
47368;DHT22;34646;47.964;7.982;2023-11-19T15:50:38;16.80;91.60
47368;DHT22;34646;47.964;7.982;2023-11-19T15:56:39;16.90;90.80
47368;DHT22;34646;47.964;7.982;2023-11-19T16:02:39;17.00;91.20
47368;DHT22;34646;47.964;7.982;2023-11-19T16:08:40;16.50;90.80
47368;DHT22;34646;47.964;7.982;2023-11-19T16:14:41;16.50;91.00
47368;DHT22;34646;47.964;7.982;2023-11-19T16:26:43;16.70;90.90
47368;DHT22;34646;47.964;7.982;2023-11-19T16:32:52;16.60;90.70
47368;DHT22;34646;47.964;7.982;2023-11-19T16:38:55;16.90;90.90
47368;DHT22;34646;47.964;7.982;2023-11-19T16:44:56;16.80;91.40
47368;DHT22;34646;47.964;7.982;2023-11-19T16:50:57;16.90;91.90
47368;DHT22;34646;47.964;7.982;2023-11-19T16:56:57;17.30;91.80
47368;DHT22;34646;47.964;7.982;2023-11-19T17:02:58;17.00;92.00
47368;DHT22;34646;47.964;7.982;2023-11-19T17:21:05;17.50;92.60
47368;DHT22;34646;47.964;7.982;2023-11-19T17:27:06;17.40;92.90
47368;DHT22;34646;47.964;7.982;2023-11-19T17:39:09;17.30;93.00
47368;DHT22;34646;47.964;7.982;2023-11-19T17:45:10;17.30;93.10
47368;DHT22;34646;47.964;7.982;2023-11-19T18:03:14;16.90;93.70
47368;DHT22;34646;47.964;7.982;2023-11-19T18:15:16;17.40;89.00
47368;DHT22;34646;47.964;7.982;2023-11-19T18:27:18;17.00;94.10
47368;DHT22;34646;47.964;7.982;2023-11-19T18:33:19;17.10;90.30
47368;DHT22;34646;47.964;7.982;2023-11-19T18:51:22;17.00;94.20
47368;DHT22;34646;47.964;7.982;2023-11-19T19:21:30;17.30;89.80
47368;DHT22;34646;47.964;7.982;2023-11-19T19:57:37;17.50;94.20
47368;DHT22;34646;47.964;7.982;2023-11-19T20:09:39;17.50;93.30
47368;DHT22;34646;47.964;7.982;2023-11-19T20:21:43;17.40;90.90
47368;DHT22;34646;47.964;7.982;2023-11-19T20:27:43;17.20;94.60
47368;DHT22;34646;47.964;7.982;2023-11-19T20:57:48;17.40;91.50
47368;DHT22;34646;47.964;7.982;2023-11-19T21:03:50;17.60;95.20
47368;DHT22;34646;47.964;7.982;2023-11-19T21:09:50;17.00;94.90
47368;DHT22;34646;47.964;7.982;2023-11-19T21:15:51;17.30;95.20
47368;DHT22;34646;47.964;7.982;2023-11-19T21:21:52;17.60;95.00
47368;DHT22;34646;47.964;7.982;2023-11-19T21:57:58;17.80;95.10
47368;DHT22;34646;47.964;7.982;2023-11-19T22:16:04;17.50;94.80
47368;DHT22;34646;47.964;7.982;2023-11-19T22:28:06;17.40;94.90
47368;DHT22;34646;47.964;7.982;2023-11-19T22:34:07;17.40;94.80
47368;DHT22;34646;47.964;7.982;2023-11-19T22:40:08;17.50;94.90
47368;DHT22;34646;47.964;7.982;2023-11-19T22:46:09;17.70;94.60
47368;DHT22;34646;47.964;7.982;2023-11-19T23:10:13;17.00;94.40
47368;DHT22;34646;47.964;7.982;2023-11-19T23:16:13;17.20;94.40
47368;DHT22;34646;47.964;7.982;2023-11-19T23:28:17;17.60;94.50
47368;DHT22;34646;47.964;7.982;2023-11-19T23:34:18;17.10;94.40
47368;DHT22;34646;47.964;7.982;2023-11-19T23:40:19;17.40;94.70
